Time;durP1;ratioP1;P1;durP2;ratioP2;P2;SDS_P1;SDS_P2;PMS_P1;PMS_P2;Temp;Humidity;BMP_temperature;BMP_pressure;BME280_temperature;BME280_humidity;BME280_pressure;Samples;Min_cycle;Max_cycle;Signal;HPM_P1;HPM_P2
2022/09/23 00:04:52;;;;;;;11.10;8.80;;;;;;;6.06;76.78;100379.91;214102;1276;141317;-64
2022/09/23 00:10:20;;;;;;;10.00;7.70;;;;;;;6.00;76.87;100382.05;213436;1276;140254;-63
2022/09/23 00:15:48;;;;;;;9.70;7.60;;;;;;;5.85;76.43;100381.95;214057;1276;140568;-62
2022/09/23 00:21:14;;;;;;;;;;;;;;;5.68;76.45;100378.92;212918;1276;140232;-65
2022/09/23 00:26:52;;;;;;;13.00;7.80;;;;;;;5.60;76.93;100378.75;214883;1276;127226;-67
2022/09/23 00:32:32;;;;;;;12.50;7.80;;;;;;;5.60;76.90;100377.61;214203;1276;140970;-64
2022/09/23 00:37:57;;;;;;;10.20;6.70;;;;;;;5.49;76.67;100373.62;213713;1276;140059;-64
2022/09/23 00:43:47;;;;;;;13.50;7.70;;;;;;;5.32;76.52;100368.83;213235;1276;141181;-64
2022/09/23 00:49:26;;;;;;;10.00;7.00;;;;;;;5.15;76.57;100365.41;213892;1276;141524;-65
2022/09/23 00:54:59;;;;;;;9.80;8.20;;;;;;;5.03;76.76;100365.95;214088;1276;140261;-64
2022/09/23 01:00:45;;;;;;;11.00;8.30;;;;;;;4.96;77.20;100363.11;215833;1276;140951;-67
2022/09/23 01:06:07;;;;;;;11.90;7.80;;;;;;;4.88;76.61;100355.98;214959;1276;141073;-67
2022/09/23 01:12:13;;;;;;;13.70;8.00;;;;;;;4.76;76.85;100360.82;215530;1276;140482;-67
2022/09/23 01:18:08;;;;;;;11.60;7.70;;;;;;;4.74;77.19;100351.48;214772;1276;140590;-66
2022/09/23 01:24:19;;;;;;;8.30;7.20;;;;;;;4.63;77.11;100353.91;215356;1276;140525;-65
2022/09/23 01:29:57;;;;;;;7.60;6.50;;;;;;;4.54;77.04;100357.48;214285;1276;140720;-65
2022/09/23 01:35:29;;;;;;;5.90;5.10;;;;;;;4.49;77.26;100357.05;212856;1276;141633;-65
2022/09/23 01:41:43;;;;;;;9.50;6.20;;;;;;;4.50;77.72;100354.39;214658;1276;140542;-66
2022/09/23 01:47:51;;;;;;;8.10;6.30;;;;;;;4.45;77.83;100354.27;214705;1276;140855;-65
2022/09/23 01:53:18;;;;;;;8.30;6.50;;;;;;;4.28;77.20;100349.25;214458;1276;139660;-63
2022/09/23 01:59:33;;;;;;;7.40;6.50;;;;;;;4.10;77.03;100345.55;213852;1276;141358;-63
2022/09/23 02:05:29;;;;;;;8.80;7.10;;;;;;;4.09;77.55;100350.59;213979;1276;233816;-63
2022/09/23 02:11:03;;;;;;;10.80;7.00;;;;;;;4.11;77.62;100352.98;214955;1276;142556;-60
2022/09/23 02:16:46;;;;;;;11.30;8.10;;;;;;;3.94;77.30;100346.70;212967;1276;141568;-64
2022/09/23 02:22:20;;;;;;;10.80;7.80;;;;;;;3.80;77.52;100348.69;214322;1276;141134;-65
2022/09/23 02:28:38;;;;;;;10.30;6.70;;;;;;;3.70;77.50;100342.41;214268;1276;140569;-63
2022/09/23 02:34:20;;;;;;;12.00;7.10;;;;;;;3.66;77.87;100348.69;212767;1283;140893;-65
2022/09/23 02:40:00;;;;;;;13.90;7.90;;;;;;;3.73;78.38;100349.97;214309;1276;141676;-65
2022/09/23 02:45:29;;;;;;;10.90;6.60;;;;;;;3.76;78.52;100350.39;214719;1277;140094;-64
2022/09/23 02:50:42;;;;;;;13.90;7.50;;;;;;;3.74;78.87;100350.59;215077;1276;140662;-64
2022/09/23 02:56:10;;;;;;;10.00;7.10;;;;;;;3.75;78.90;100359.63;215776;1276;140779;-63
2022/09/23 03:01:48;;;;;;;9.60;7.40;;;;;;;3.81;79.24;100357.35;215760;1276;140418;-64
2022/09/23 03:07:36;;;;;;;8.70;6.40;;;;;;;3.87;79.06;100356.67;214954;1277;143429;-63
2022/09/23 03:13:34;;;;;;;6.40;5.80;;;;;;;3.87;79.06;100352.95;214524;1277;143417;-62
2022/09/23 03:19:35;;;;;;;7.20;4.40;;;;;;;3.81;79.08;100347.09;215195;1276;139893;-64
2022/09/23 03:25:23;;;;;;;9.10;7.80;;;;;;;3.80;79.60;100347.09;215121;1277;141606;-65
2022/09/23 03:30:43;;;;;;;11.30;7.30;;;;;;;3.86;79.78;100347.98;213242;1277;141076;-62
2022/09/23 03:41:29;;;;;;;12.00;7.60;;;;;;;4.03;80.53;100344.54;212979;1277;140331;-63
2022/09/23 03:46:59;;;;;;;9.60;7.30;;;;;;;4.23;81.03;100346.98;213815;1277;154554;-64
2022/09/23 03:52:27;;;;;;;7.70;6.10;;;;;;;4.36;81.00;100337.72;213160;1277;141726;-63
2022/09/23 03:58:03;;;;;;;7.90;6.70;;;;;;;4.39;80.99;100339.59;214312;1277;140609;-64
2022/09/23 04:03:28;;;;;;;11.30;7.70;;;;;;;4.42;81.42;100338.91;213179;1277;140840;-64
2022/09/23 04:09:05;;;;;;;9.90;7.60;;;;;;;4.52;81.63;100337.56;213232;1276;141746;-64
2022/09/23 04:14:39;;;;;;;11.10;7.90;;;;;;;4.63;81.65;100331.36;213863;1277;141329;-66
2022/09/23 04:19:58;;;;;;;8.60;7.00;;;;;;;4.71;81.74;100321.41;212955;1277;152295;-64
2022/09/23 04:25:35;;;;;;;8.20;6.10;;;;;;;4.76;81.81;100329.09;214496;1276;151230;-64
2022/09/23 04:30:58;;;;;;;7.40;6.10;;;;;;;4.78;81.89;100329.52;214278;1277;141012;-63
2022/09/23 04:36:23;;;;;;;8.60;7.30;;;;;;;4.82;81.81;100322.77;214456;1276;140665;-64
2022/09/23 04:41:48;;;;;;;8.60;6.30;;;;;;;4.90;82.20;100326.47;215305;1276;141834;-64
2022/09/23 04:47:26;;;;;;;6.20;4.70;;;;;;;4.99;82.26;100327.88;214411;1276;140533;-63
2022/09/23 04:53:10;;;;;;;8.50;7.60;;;;;;;5.00;82.26;100326.75;215862;1276;141620;-62
2022/09/23 04:58:26;;;;;;;7.50;6.80;;;;;;;5.08;82.32;100329.30;215722;1276;141728;-63
2022/09/23 05:03:38;;;;;;;10.10;7.40;;;;;;;5.18;82.43;100322.99;213441;1275;141463;-62
2022/09/23 05:08:53;;;;;;;8.90;7.00;;;;;;;5.29;82.24;100318.31;214438;1276;141885;-62
2022/09/23 05:14:03;;;;;;;7.70;6.00;;;;;;;5.31;81.76;100322.21;214484;1276;151102;-66
2022/09/23 05:19:17;;;;;;;7.80;6.20;;;;;;;5.38;82.16;100320.70;214262;1276;142250;-63
2022/09/23 05:24:29;;;;;;;7.20;6.10;;;;;;;5.43;81.97;100327.80;212695;1276;140635;-64
2022/09/23 05:29:48;;;;;;;8.70;6.50;;;;;;;5.40;82.19;100328.17;213969;1276;140472;-65
2022/09/23 05:35:08;;;;;;;10.00;8.00;;;;;;;5.47;82.48;100331.55;213057;1276;223124;-63
2022/09/23 05:40:25;;;;;;;8.60;7.80;;;;;;;5.63;82.78;100333.83;214089;1276;141270;-65
2022/09/23 05:46:14;;;;;;;8.00;6.50;;;;;;;5.77;82.47;100331.45;212930;1276;141962;-63
2022/09/23 05:51:55;;;;;;;5.10;4.70;;;;;;;5.80;82.43;100334.04;213973;1276;140666;-64
2022/09/23 05:57:20;;;;;;;7.40;6.80;;;;;;;5.75;82.16;100336.47;213099;1276;141703;-64
2022/09/23 06:02:37;;;;;;;9.60;6.80;;;;;;;5.79;82.42;100338.95;214400;1276;142629;-65
2022/09/23 06:08:02;;;;;;;6.70;6.00;;;;;;;5.92;82.67;100334.61;214099;1277;140691;-64
2022/09/23 06:13:26;;;;;;;7.40;6.20;;;;;;;6.02;82.45;100332.70;214511;1276;140954;-63
2022/09/23 06:18:45;;;;;;;8.40;6.80;;;;;;;6.16;82.27;100338.42;214690;1276;140515;-63
2022/09/23 06:24:17;;;;;;;7.60;6.30;;;;;;;6.41;82.75;100347.41;214754;1276;142083;-66
2022/09/23 06:29:50;;;;;;;16.00;6.40;;;;;;;6.61;82.57;100350.00;215698;1276;141533;-65
2022/09/23 06:35:08;;;;;;;7.30;6.00;;;;;;;6.80;82.46;100347.98;215046;1276;141193;-65
2022/09/23 06:40:35;;;;;;;9.40;8.10;;;;;;;6.96;82.42;100349.11;215229;1276;142597;-63
2022/09/23 06:46:02;;;;;;;11.90;8.70;;;;;;;7.12;81.88;100343.05;213562;1276;142204;-62
2022/09/23 06:51:34;;;;;;;11.70;9.10;;;;;;;7.47;82.56;100339.27;214426;1276;140876;-65
2022/09/23 06:56:58;;;;;;;7.30;6.50;;;;;;;7.84;82.87;100350.16;214336;1276;141803;-65
2022/09/23 07:02:20;;;;;;;8.10;7.30;;;;;;;8.17;82.41;100350.98;214202;1276;141191;-64
2022/09/23 07:07:40;;;;;;;7.50;6.40;;;;;;;8.48;82.14;100346.88;214332;1276;141304;-64
2022/09/23 07:13:01;;;;;;;9.70;7.80;;;;;;;8.87;82.22;100342.95;214038;1276;140534;-64
2022/09/23 07:18:24;;;;;;;10.50;8.00;;;;;;;9.22;81.54;100348.20;213683;1276;140140;-64
2022/09/23 07:23:59;;;;;;;9.90;7.80;;;;;;;9.50;81.54;100350.92;213590;1276;140874;-64
2022/09/23 07:29:23;;;;;;;13.90;8.50;;;;;;;9.83;81.67;100349.02;213962;1276;142331;-64
2022/09/23 07:35:07;;;;;;;7.30;6.50;;;;;;;10.13;81.37;100355.91;214004;1276;140576;-64
2022/09/23 07:40:51;;;;;;;11.50;8.20;;;;;;;10.32;80.72;100357.55;214181;1276;140539;-65
2022/09/23 07:46:39;;;;;;;11.80;8.90;;;;;;;10.42;80.80;100356.96;213715;1276;141765;-63
2022/09/23 07:52:21;;;;;;;11.40;7.70;;;;;;;10.69;81.11;100363.52;214515;1276;141115;-65
2022/09/23 07:57:53;;;;;;;9.10;7.90;;;;;;;11.15;81.05;100359.05;215215;1276;140002;-64
2022/09/23 08:03:19;;;;;;;9.30;7.90;;;;;;;11.48;80.21;100357.05;214442;1276;231381;-65
2022/09/23 08:08:50;;;;;;;9.00;6.70;;;;;;;11.62;79.79;100352.39;213992;1276;141434;-65
2022/09/23 08:14:11;;;;;;;8.10;7.30;;;;;;;12.05;80.07;100353.88;214939;1276;140539;-64
2022/09/23 08:19:48;;;;;;;8.60;6.80;;;;;;;12.25;79.70;100355.98;215665;1276;139722;-65
2022/09/23 08:25:28;;;;;;;7.00;5.90;;;;;;;12.81;79.89;100352.51;215734;1276;139848;-65
2022/09/23 08:31:07;;;;;;;6.40;5.70;;;;;;;13.43;79.52;100349.61;215506;1276;141006;-66
2022/09/23 08:36:35;;;;;;;6.60;6.00;;;;;;;13.87;78.62;100347.63;215378;1276;141777;-66
2022/09/23 08:42:24;;;;;;;8.20;5.80;;;;;;;14.02;77.22;100344.25;215311;1276;141613;-66
2022/09/23 08:48:18;;;;;;;4.30;3.90;;;;;;;14.48;77.21;100343.72;212884;1276;141496;-64
2022/09/23 08:53:45;;;;;;;;;;;;;;;15.09;76.84;100345.69;214531;1276;141217;-66
2022/09/23 08:59:14;;;;;;;5.10;3.20;;;;;;;15.27;75.55;100339.80;214263;1277;142588;-67
2022/09/23 09:04:51;;;;;;;3.70;3.40;;;;;;;15.62;74.98;100335.91;212894;1276;141848;-65
2022/09/23 09:10:46;;;;;;;3.40;3.10;;;;;;;15.96;73.68;100335.00;213168;1276;141832;-64
2022/09/23 09:16:05;;;;;;;1.90;1.80;;;;;;;15.87;73.00;100335.72;213847;1276;140926;-65
2022/09/23 09:21:13;;;;;;;1.20;1.10;;;;;;;16.15;71.81;100331.09;213804;1276;141699;-65
2022/09/23 09:26:31;;;;;;;1.00;1.00;;;;;;;16.54;70.64;100319.31;214809;1276;141992;-68
2022/09/23 09:31:45;;;;;;;1.80;1.70;;;;;;;16.95;69.95;100312.98;213439;1276;141191;-66
2022/09/23 09:36:53;;;;;;;1.60;1.50;;;;;;;17.06;68.77;100308.23;213620;1276;140189;-68
2022/09/23 09:41:58;;;;;;;9.70;5.30;;;;;;;16.58;67.73;100309.48;213165;1276;140299;-68
2022/09/23 09:47:19;;;;;;;2.90;2.60;;;;;;;16.69;68.00;100302.67;213265;1276;141623;-66
2022/09/23 09:52:28;;;;;;;2.00;1.90;;;;;;;16.26;66.96;100299.42;213323;1276;142145;-66
2022/09/23 09:57:38;;;;;;;3.00;1.90;;;;;;;15.87;66.66;100297.23;214616;1276;467135;-66
2022/09/23 10:02:40;;;;;;;17.50;2.70;;;;;;;15.59;66.40;100293.02;213653;1275;141340;-68
2022/09/23 10:07:43;;;;;;;2.80;1.80;;;;;;;15.31;66.24;100289.29;214105;1276;140627;-69
2022/09/23 10:12:48;;;;;;;1.20;1.20;;;;;;;15.05;66.41;100287.71;215696;1276;140407;-68
2022/09/23 10:17:53;;;;;;;1.50;1.30;;;;;;;14.78;66.09;100284.84;215811;1276;142436;-70
2022/09/23 10:22:56;;;;;;;1.90;1.40;;;;;;;14.69;66.02;100284.45;215773;1276;140723;-67
2022/09/23 10:27:57;;;;;;;1.20;1.20;;;;;;;14.83;66.24;100278.95;214014;1274;141571;-67
2022/09/23 10:33:00;;;;;;;0.90;0.80;;;;;;;15.57;66.07;100273.45;214901;1276;141413;-69
2022/09/23 10:38:02;;;;;;;1.30;1.20;;;;;;;16.28;65.48;100267.45;215093;1276;139648;-67
2022/09/23 10:48:53;;;;;;;1.00;0.90;;;;;;;17.24;63.32;100259.75;215166;1276;140408;-68
2022/09/23 10:54:06;;;;;;;3.00;2.10;;;;;;;17.47;63.01;100256.40;213551;1276;140756;-69
2022/09/23 10:59:46;;;;;;;3.40;1.60;;;;;;;17.19;61.50;100255.42;213676;1276;139916;-70
2022/09/23 11:05:25;;;;;;;1.10;1.10;;;;;;;17.31;61.52;100247.17;213077;1276;140736;-68
2022/09/23 11:10:47;;;;;;;3.00;1.10;;;;;;;17.32;61.11;100249.00;213179;1276;141600;-68
2022/09/23 11:16:37;;;;;;;2.70;1.50;;;;;;;17.32;60.64;100250.29;213513;1276;140084;-67
2022/09/23 11:22:09;;;;;;;1.20;1.10;;;;;;;17.11;59.92;100240.27;213226;1277;140163;-66
2022/09/23 11:27:38;;;;;;;1.40;1.30;;;;;;;16.59;59.44;100244.48;213395;1278;140581;-68
2022/09/23 11:32:51;;;;;;;1.60;1.20;;;;;;;16.11;59.44;100241.05;213211;1276;140539;-68
2022/09/23 11:38:02;;;;;;;3.30;2.40;;;;;;;15.84;59.59;100233.86;213601;1276;139924;-68
2022/09/23 11:43:22;;;;;;;2.40;2.20;;;;;;;15.74;60.26;100225.83;212866;1276;140549;-70
2022/09/23 11:48:35;;;;;;;1.80;1.70;;;;;;;15.85;60.51;100223.08;213185;1276;140966;-68
2022/09/23 11:53:43;;;;;;;2.10;1.80;;;;;;;15.68;60.08;100219.86;214100;1275;140842;-67
2022/09/23 11:59:01;;;;;;;1.50;1.40;;;;;;;15.49;59.71;100215.98;214813;1274;140676;-69
2022/09/23 12:04:12;;;;;;;7.20;3.00;;;;;;;15.41;59.92;100211.16;215169;1276;140395;-68
2022/09/23 12:09:33;;;;;;;4.50;2.50;;;;;;;15.60;60.17;100210.02;215732;1276;140424;-67
2022/09/23 12:15:19;;;;;;;1.60;1.30;;;;;;;16.19;60.02;100203.45;215703;1276;141319;-67
2022/09/23 12:20:42;;;;;;;1.40;1.30;;;;;;;16.37;59.18;100197.79;215385;1276;140714;-66
2022/09/23 12:25:47;;;;;;;1.60;1.50;;;;;;;16.31;59.04;100200.50;215587;1276;140647;-67
2022/09/23 12:30:53;;;;;;;3.90;1.30;;;;;;;16.44;58.67;100193.09;215203;1276;141610;-68
2022/09/23 12:36:09;;;;;;;1.10;1.10;;;;;;;16.75;58.23;100185.13;214136;1276;142370;-64
2022/09/23 12:41:34;;;;;;;1.20;1.20;;;;;;;16.77;57.83;100183.41;214253;1276;141220;-65
2022/09/23 12:46:36;;;;;;;1.00;1.00;;;;;;;16.72;57.75;100184.78;214794;1276;221504;-66
2022/09/23 12:52:11;;;;;;;1.40;1.30;;;;;;;16.55;57.62;100177.96;214311;1276;141081;-70
2022/09/23 12:57:33;;;;;;;0.80;0.80;;;;;;;16.45;57.70;100177.87;213797;1276;140050;-69
2022/09/23 13:06:37;;;;;;;1.20;1.20;;;;;;;16.33;57.67;100173.45;214888;1275;142429;-69
2022/09/23 13:08:19;;;;;;;2.20;1.50;;;;;;;16.17;57.52;100170.67;214362;1276;141068;-70
2022/09/23 13:13:31;;;;;;;2.70;1.20;;;;;;;16.02;57.52;100174.46;214310;1276;140732;-66
2022/09/23 13:18:53;;;;;;;0.80;0.80;;;;;;;15.84;57.52;100170.20;213920;1276;139822;-66
2022/09/23 13:24:18;;;;;;;1.00;1.00;;;;;;;15.66;57.62;100159.92;213720;1276;140302;-67
2022/09/23 13:29:36;;;;;;;1.10;1.10;;;;;;;15.51;57.53;100149.73;213412;1276;141543;-69
2022/09/23 13:34:43;;;;;;;1.20;1.10;;;;;;;15.49;57.85;100146.77;213617;1276;141462;-67
2022/09/23 13:39:45;;;;;;;;;;;;;;;15.61;58.08;100142.14;213984;1276;140023;-66
2022/09/23 13:44:48;;;;;;;2.70;1.10;;;;;;;15.88;57.33;100135.45;214884;1276;127442;-66
2022/09/23 13:49:52;;;;;;;2.50;1.30;;;;;;;16.06;56.95;100122.05;213532;1276;140746;-66
2022/09/23 13:54:54;;;;;;;3.00;1.70;;;;;;;16.23;57.00;100113.52;213316;1276;140052;-66
2022/09/23 14:00:24;;;;;;;2.00;1.80;;;;;;;16.47;56.90;100107.22;213041;1276;139564;-67
2022/09/23 14:05:32;;;;;;;1.40;1.30;;;;;;;16.67;56.85;100095.72;215312;1276;139874;-66
2022/09/23 14:10:34;;;;;;;1.90;1.80;;;;;;;16.83;56.30;100096.08;213710;1276;139638;-65
2022/09/23 14:15:39;;;;;;;1.70;1.60;;;;;;;16.90;55.86;100088.81;214272;1276;139757;-66
2022/09/23 14:20:49;;;;;;;1.90;1.50;;;;;;;16.99;55.99;100087.65;215762;1275;141376;-66
2022/09/23 14:25:53;;;;;;;8.00;1.70;;;;;;;16.86;55.50;100096.08;215331;1276;140896;-67
2022/09/23 14:30:57;;;;;;;1.20;1.10;;;;;;;16.66;55.09;100094.36;215738;1276;141123;-68
2022/09/23 14:38:49;;;;;;;1.90;1.60;;;;;;;16.40;54.65;100100.09;215609;1276;140123;-69
2022/09/23 14:41:41;;;;;;;3.20;2.50;;;;;;;16.13;54.37;100094.55;213618;1276;140720;-67
2022/09/23 14:46:55;;;;;;;2.10;1.40;;;;;;;15.98;54.86;100093.77;213632;1276;140645;-69
2022/09/23 14:52:05;;;;;;;1.60;1.40;;;;;;;15.98;55.00;100083.71;214557;1276;140012;-68
2022/09/23 14:57:24;;;;;;;2.40;2.20;;;;;;;16.08;54.99;100079.04;214362;1276;141135;-67
2022/09/23 15:02:31;;;;;;;1.60;1.50;;;;;;;16.06;54.91;100079.35;214418;1276;140647;-67
2022/09/23 15:07:36;;;;;;;;;;;;;;;16.05;54.36;100075.63;213093;1276;140994;-67
2022/09/23 15:12:44;;;;;;;2.00;1.30;;;;;;;15.82;54.23;100071.66;214258;1276;126395;-69
2022/09/23 15:17:47;;;;;;;1.60;1.50;;;;;;;15.55;55.01;100070.14;214510;1276;140994;-65
2022/09/23 15:22:55;;;;;;;2.20;1.50;;;;;;;15.23;55.79;100069.58;213631;1276;140835;-66
2022/09/23 15:28:16;;;;;;;2.10;2.00;;;;;;;14.93;56.72;100065.55;214141;1276;140437;-66
2022/09/23 15:33:26;;;;;;;1.60;1.50;;;;;;;14.62;57.18;100065.38;214778;1274;139865;-67
2022/09/23 15:38:30;;;;;;;4.10;1.50;;;;;;;14.34;57.84;100065.55;213951;1276;140817;-67
2022/09/23 15:43:33;;;;;;;1.30;1.10;;;;;;;14.14;58.31;100063.95;213348;1276;141448;-67
2022/09/23 15:48:49;;;;;;;2.60;2.20;;;;;;;13.88;58.94;100058.65;213409;1276;141587;-68
2022/09/23 15:53:58;;;;;;;2.70;1.90;;;;;;;13.61;60.00;100059.56;212927;1277;140768;-67
2022/09/23 15:59:02;;;;;;;2.70;2.40;;;;;;;13.33;60.70;100060.29;214403;1276;153486;-67
2022/09/23 16:04:05;;;;;;;2.50;2.20;;;;;;;13.10;61.35;100058.73;213576;1276;162767;-69
2022/09/23 16:09:07;;;;;;;6.70;3.40;;;;;;;12.92;61.97;100059.81;212972;1276;142148;-71
2022/09/23 16:14:14;;;;;;;3.90;2.90;;;;;;;12.72;62.56;100054.55;212976;1276;143699;-68
2022/09/23 16:19:16;;;;;;;;;;;;;;;12.47;62.85;100056.76;213559;1276;141480;-73
2022/09/23 16:24:18;;;;;;;9.30;3.10;;;;;;;12.20;63.76;100053.48;216429;1276;128177;-71
2022/09/23 16:29:26;;;;;;;2.30;2.20;;;;;;;12.10;64.72;100048.41;214545;1276;141102;-66
2022/09/23 16:34:28;;;;;;;2.00;1.80;;;;;;;11.96;64.77;100050.36;215793;1276;140922;-68
2022/09/23 16:39:31;;;;;;;2.30;2.10;;;;;;;11.69;65.28;100052.12;213829;1276;141171;-68
2022/09/23 16:44:33;;;;;;;4.20;2.30;;;;;;;11.51;65.88;100048.84;213964;1277;141142;-68
2022/09/23 16:49:35;;;;;;;7.90;2.60;;;;;;;11.34;66.03;100046.30;213465;1277;141114;-69
2022/09/23 16:54:37;;;;;;;2.80;2.60;;;;;;;11.28;66.91;100050.66;212851;1276;142094;-70
2022/09/23 17:05:02;;;;;;;2.10;2.00;;;;;;;11.14;67.24;100050.29;214125;1276;141083;-68
2022/09/23 17:10:06;;;;;;;4.40;2.20;;;;;;;10.96;67.14;100050.64;213828;1276;140513;-68
2022/09/23 17:15:11;;;;;;;2.00;1.90;;;;;;;10.83;67.74;100047.80;214914;1276;140316;-67
2022/09/23 17:20:14;;;;;;;5.40;2.70;;;;;;;10.66;68.00;100047.02;212843;1276;140394;-68
2022/09/23 17:25:17;;;;;;;2.10;1.90;;;;;;;10.54;68.45;100049.08;212687;1276;142651;-67
2022/09/23 17:30:19;;;;;;;2.70;2.50;;;;;;;10.41;68.59;100053.77;213966;1277;140839;-67
2022/09/23 17:35:22;;;;;;;4.20;2.90;;;;;;;10.27;69.01;100052.95;212661;1276;162671;-69
2022/09/23 17:40:24;;;;;;;2.80;2.40;;;;;;;10.25;69.85;100054.02;213756;1276;141414;-66
2022/09/23 17:45:28;;;;;;;4.40;4.00;;;;;;;10.32;70.30;100056.82;214975;1276;141270;-70
2022/09/23 17:50:32;;;;;;;5.60;3.70;;;;;;;10.36;70.33;100053.89;213012;1276;141391;-66
2022/09/23 17:55:35;;;;;;;3.40;2.60;;;;;;;10.24;70.43;100049.19;212947;1277;140721;-66
2022/09/23 18:00:37;;;;;;;3.90;3.50;;;;;;;10.12;70.48;100047.40;214032;1276;140122;-67
2022/09/23 18:05:45;;;;;;;4.40;3.70;;;;;;;10.06;70.95;100048.14;213989;1276;142028;-67
2022/09/23 18:10:49;;;;;;;3.60;3.30;;;;;;;10.14;71.29;100045.80;212912;1276;140715;-68
2022/09/23 18:15:51;;;;;;;4.30;4.00;;;;;;;10.17;71.13;100041.76;215132;1276;140806;-67
2022/09/23 18:21:04;;;;;;;7.20;4.30;;;;;;;10.18;71.29;100043.72;215692;1276;141679;-65
2022/09/23 18:26:15;;;;;;;6.80;4.80;;;;;;;10.12;71.32;100045.52;215841;1276;141612;-65
2022/09/23 18:31:17;;;;;;;5.00;4.60;;;;;;;9.97;71.42;100046.06;215641;1276;141034;-67
2022/09/23 18:36:21;;;;;;;7.00;5.20;;;;;;;9.86;71.78;100043.07;215494;1276;141392;-65
2022/09/23 18:41:25;;;;;;;7.80;7.00;;;;;;;9.78;71.87;100041.31;213798;1276;142003;-64
2022/09/23 18:46:29;;;;;;;8.20;5.50;;;;;;;9.74;72.31;100038.55;212987;1276;144778;-64
2022/09/23 18:51:37;;;;;;;7.70;6.50;;;;;;;9.84;72.72;100038.63;212729;1276;141965;-64
2022/09/23 18:56:41;;;;;;;11.80;7.10;;;;;;;9.85;72.80;100040.54;213819;1276;141809;-64
2022/09/23 19:01:44;;;;;;;10.80;7.10;;;;;;;9.66;72.67;100039.73;213381;1277;152344;-66
2022/09/23 19:06:48;;;;;;;16.70;10.20;;;;;;;9.48;73.05;100036.73;213585;1276;140819;-68
2022/09/23 19:11:52;;;;;;;15.40;10.10;;;;;;;9.52;73.76;100034.98;214874;1276;152032;-66
2022/09/23 19:16:54;;;;;;;16.90;10.50;;;;;;;9.52;73.74;100035.58;214118;1276;141077;-68
2022/09/23 19:21:57;;;;;;;23.50;12.70;;;;;;;9.59;74.01;100037.80;213502;1277;140995;-69
2022/09/23 19:27:01;;;;;;;18.80;12.30;;;;;;;9.59;74.03;100039.89;213119;1277;140532;-65
2022/09/23 19:32:06;;;;;;;23.10;13.80;;;;;;;9.52;74.15;100039.19;213617;1277;141914;-66
2022/09/23 19:37:08;;;;;;;17.90;12.50;;;;;;;9.49;74.55;100038.61;213730;1276;161685;-70
2022/09/23 19:42:11;;;;;;;20.10;14.70;;;;;;;9.52;74.79;100038.02;213835;1277;141544;-65
2022/09/23 19:47:16;;;;;;;25.60;14.90;;;;;;;9.58;74.94;100031.06;212722;1277;141457;-69
2022/09/23 19:52:19;;;;;;;30.50;20.00;;;;;;;9.60;74.79;100032.80;213477;1277;141553;-69
2022/09/23 19:57:21;;;;;;;19.00;13.00;;;;;;;9.54;74.77;100032.48;213323;1277;140414;-68
2022/09/23 20:02:24;;;;;;;46.40;23.50;;;;;;;9.52;75.28;100035.41;214429;1277;141634;-66
2022/09/23 20:07:26;;;;;;;32.70;21.50;;;;;;;9.54;75.31;100036.20;214045;1276;140581;-68
2022/09/23 20:12:32;;;;;;;37.10;21.60;;;;;;;9.42;75.15;100023.48;213587;1277;141615;-67
2022/09/23 20:17:34;;;;;;;35.60;20.50;;;;;;;9.33;75.31;100025.70;213802;1277;141798;-68
2022/09/23 20:22:36;;;;;;;38.20;23.90;;;;;;;9.38;75.78;100022.70;215718;1277;141584;-66
2022/09/23 20:27:39;;;;;;;48.10;26.80;;;;;;;9.45;76.00;100023.09;215810;1276;140312;-65
2022/09/23 20:32:42;;;;;;;41.80;26.70;;;;;;;9.50;76.01;100021.55;215622;1277;140720;-66
2022/09/23 20:37:46;;;;;;;34.80;22.70;;;;;;;9.49;76.02;100022.30;215549;1277;140751;-67
2022/09/23 20:42:49;;;;;;;44.50;28.40;;;;;;;9.49;75.74;100023.41;215281;1277;141536;-68
2022/09/23 20:47:51;;;;;;;42.00;23.50;;;;;;;9.51;76.09;100018.68;214164;1277;140555;-68
2022/09/23 20:52:55;;;;;;;48.60;24.70;;;;;;;9.59;76.30;100018.60;213349;1276;236531;-65
2022/09/23 20:57:59;;;;;;;40.70;25.40;;;;;;;9.66;76.54;100016.27;214903;1277;142054;-65
2022/09/23 21:03:02;;;;;;;41.40;24.30;;;;;;;9.70;76.38;100013.34;214317;1276;140603;-67
2022/09/23 21:08:05;;;;;;;34.00;22.00;;;;;;;9.64;76.33;100007.99;213361;1276;141138;-65
2022/09/23 21:13:07;;;;;;;28.70;20.30;;;;;;;9.64;76.46;100006.30;212795;1277;140798;-65
2022/09/23 21:18:10;;;;;;;42.50;28.50;;;;;;;9.67;76.61;100005.90;214356;1277;141603;-66
2022/09/23 21:23:22;;;;;;;43.40;27.00;;;;;;;9.64;76.58;100002.13;213551;1276;143135;-65
2022/09/23 21:28:29;;;;;;;40.60;24.00;;;;;;;9.51;76.64;99997.71;213265;1277;140675;-64
2022/09/23 21:33:35;;;;;;;37.10;25.40;;;;;;;9.48;76.89;99995.48;213911;1276;140937;-68
2022/09/23 21:38:38;;;;;;;35.80;23.60;;;;;;;9.53;76.92;99999.04;213310;1277;140505;-65
2022/09/23 21:43:40;;;;;;;36.90;23.00;;;;;;;9.60;77.11;99999.96;213278;1276;141310;-66
2022/09/23 21:48:43;;;;;;;37.80;23.30;;;;;;;9.54;77.08;99999.56;214391;1276;140672;-64
2022/09/23 21:53:45;;;;;;;41.30;25.90;;;;;;;9.54;77.30;99997.73;212833;1276;502524;-65
2022/09/23 21:58:48;;;;;;;33.80;24.20;;;;;;;9.44;77.25;99992.86;213419;1277;140549;-65
2022/09/23 22:03:56;;;;;;;44.30;23.50;;;;;;;9.48;77.38;99990.58;214521;1276;141036;-64
2022/09/23 22:09:01;;;;;;;45.90;27.20;;;;;;;9.53;77.61;99985.45;213657;1276;141609;-65
2022/09/23 22:14:06;;;;;;;31.40;20.90;;;;;;;9.56;77.64;99983.86;214208;1276;141457;-65
2022/09/23 22:19:11;;;;;;;32.40;19.60;;;;;;;9.44;77.46;99989.70;212896;1276;140400;-65
2022/09/23 22:24:14;;;;;;;38.10;20.60;;;;;;;9.32;77.24;99984.54;215900;1276;140618;-67
2022/09/23 22:34:38;;;;;;;38.20;22.30;;;;;;;9.04;77.47;99979.45;215480;1276;140774;-68
2022/09/23 22:39:53;;;;;;;38.40;21.20;;;;;;;9.12;78.01;99982.98;215745;1276;140675;-66
2022/09/23 22:44:56;;;;;;;28.40;19.20;;;;;;;9.24;78.03;99982.15;214699;1276;141291;-66
2022/09/23 22:49:58;;;;;;;31.60;19.40;;;;;;;9.35;78.01;99976.98;214857;1276;141597;-65
2022/09/23 22:55:00;;;;;;;24.00;19.10;;;;;;;9.37;77.61;99976.59;214673;1276;141187;-64
2022/09/23 23:00:07;;;;;;;32.90;22.60;;;;;;;9.28;77.41;99976.96;213408;1276;141064;-65
2022/09/23 23:05:10;;;;;;;41.30;20.50;;;;;;;9.20;77.39;99976.59;214478;1276;141075;-65
2022/09/23 23:10:18;;;;;;;27.00;17.60;;;;;;;9.21;77.67;99971.59;214169;1276;141526;-65
2022/09/23 23:15:24;;;;;;;25.70;17.20;;;;;;;9.28;77.93;99968.83;213796;1276;141803;-66
2022/09/23 23:20:28;;;;;;;26.90;19.10;;;;;;;9.30;77.79;99967.33;214247;1276;141608;-67
2022/09/23 23:25:31;;;;;;;31.30;20.90;;;;;;;9.31;78.23;99973.21;212964;1276;153066;-65
2022/09/23 23:30:34;;;;;;;32.60;20.40;;;;;;;9.30;78.16;99973.79;212866;1276;141054;-64
2022/09/23 23:35:37;;;;;;;34.30;22.80;;;;;;;9.23;77.65;99972.34;215426;1276;141522;-65
2022/09/23 23:40:40;;;;;;;35.80;24.50;;;;;;;9.19;77.84;99974.55;213531;1276;142684;-63
2022/09/23 23:45:42;;;;;;;40.80;25.30;;;;;;;9.12;77.67;99976.23;214453;1276;141998;-67
2022/09/23 23:50:57;;;;;;;42.50;25.90;;;;;;;8.95;77.36;99968.89;213690;1276;143062;-65
2022/09/23 23:56:02;;;;;;;31.80;23.30;;;;;;;8.94;77.93;99967.02;212782;1276;145133;-65
